KESC/ESC METAR and TAF weather

Enter ICAO airport designator
Station Type Date Time Source
KESC METAR 2021/09/23 23:56 UTC NOAA

KESC 232356Z AUTO 33006KT 10SM -RA OVC100 12/05 A2987 RMK AO2 RAB52 SLP121 6//// T01170050 10144 20117 58010 PNO $


Station Type Date Time Source
KESC Decoded METAR 2021/09/23 23:56 UTC NOAA

Escanaba, MI, United States (KESC) 45-45N 087-02W 187M
Sep 23, 2021 - 07:56 PM EDT / 2021.09.23 2356 UTC
Wind: from the NNW (330 degrees) at 7 MPH (6 KT):0
Visibility: 10 mile(s):0
Sky conditions: overcast
Weather: light rain
Temperature: 53.1 F (11.7 C)
Dew Point: 41.0 F (5.0 C)
Relative Humidity: 63%
Pressure (altimeter): 29.87 in. Hg (1011 hPa)
Pressure tendency: 0.03 inches (1.0 hPa) lower than three hours ago
ob: KESC 232356Z AUTO 33006KT 10SM -RA OVC100 12/05 A2987 RMK AO2 RAB52 SLP121 6//// T01170050 10144 20117 58010 PNO
cycle: 0

Station Type Date Time Source
KESC TAF UTC NOAA

Error!

Example: see airport list